Red Rooster — 2EPF7 — position and weather

sailwx.info

Track history (hours):
 
Tides and Currents Weather Stations Pressure Air Temp Water Temp Dewpoint Dewpoint Depression Visibility Wind Speed Wind Dir Waves Ship Positions

Red Rooster

Last reported at 2017-Oct-15 14:43 UTC. Time now 2017-Oct-19 09:19 UTC.
Position N 47°43' W 003°22'.

Length 11 m.

Type: Sailing vessel. MMSI: 235087035.

Date/timePositionNaut miles runAvg speedWind from/ knotsBaromVisibWave heightAir tempDewpointWater temp
2017-Oct-15 14:43N 47°43' W 003°22'0 0.3
2017-Oct-15 14:01N 47°43' W 003°22'2 3.9
2017-Oct-15 13:29N 47°42' W 003°24'0 0.4
2017-Oct-15 12:57N 47°41' W 003°24'3 5.6
2017-Oct-15 12:30N 47°40' W 003°21'3 6.5
2017-Oct-15 11:59N 47°37' W 003°18'3 6.9
2017-Oct-15 11:29N 47°34' W 003°15'3 7.3
2017-Oct-15 11:00N 47°31' W 003°13'3 6.6
2017-Oct-15 10:29N 47°28' W 003°10'3 5.0
2017-Oct-15 09:59N 47°26' W 003°09'2 4.5
2017-Oct-15 09:29N 47°26' W 003°06'3 5.0
2017-Oct-15 08:54N 47°27' W 003°02'2 5.6
2017-Oct-15 08:28N 47°29' W 002°59'3 6.0
2017-Oct-15 07:57N 47°31' W 002°56'2 5.0
2017-Oct-15 07:27N 47°34' W 002°55'3 5.5
2017-Oct-15 06:58N 47°33' W 002°51'  
Track history (hours):
 
Tides and Currents Weather Stations Pressure Air Temp Water Temp Dewpoint Dewpoint Depression Visibility Wind Speed Wind Dir Waves Ship Positions

Red Rooster

Last reported at 2017-Oct-15 14:43 UTC. Time now 2017-Oct-19 09:19 UTC.
Position N 47°43' W 003°22'.

Length 11 m.

Type: Sailing vessel. MMSI: 235087035.

Date/timePositionNaut miles runAvg speedWind from/ knotsBaromVisibWave heightAir tempDewpointWater temp
2017-Oct-15 14:43N 47°43' W 003°22'0 0.3
2017-Oct-15 14:01N 47°43' W 003°22'2 3.9
2017-Oct-15 13:29N 47°42' W 003°24'0 0.4
2017-Oct-15 12:57N 47°41' W 003°24'3 5.6
2017-Oct-15 12:30N 47°40' W 003°21'3 6.5
2017-Oct-15 11:59N 47°37' W 003°18'3 6.9
2017-Oct-15 11:29N 47°34' W 003°15'3 7.3
2017-Oct-15 11:00N 47°31' W 003°13'3 6.6
2017-Oct-15 10:29N 47°28' W 003°10'3 5.0
2017-Oct-15 09:59N 47°26' W 003°09'2 4.5
2017-Oct-15 09:29N 47°26' W 003°06'3 5.0
2017-Oct-15 08:54N 47°27' W 003°02'2 5.6
2017-Oct-15 08:28N 47°29' W 002°59'3 6.0
2017-Oct-15 07:57N 47°31' W 002°56'2 5.0
2017-Oct-15 07:27N 47°34' W 002°55'3 5.5
2017-Oct-15 06:58N 47°33' W 002°51'  

Dump ship's entire track history